createdAt,value
2019-05-30T00:00:23.720Z,97490.58
2019-05-30T00:05:28.565Z,97490.94
2019-05-30T00:10:33.205Z,97488.97
2019-05-30T00:15:38.127Z,97497.97
2019-05-30T00:20:44.484Z,97507.27
2019-05-30T00:25:49.280Z,97512.64
2019-05-30T00:30:53.960Z,97507.68
2019-05-30T00:35:59.748Z,97514.34
2019-05-30T00:41:04.468Z,97517.75
2019-05-30T00:46:09.283Z,97514.88
2019-05-30T00:51:13.842Z,97500.92
2019-05-30T00:56:18.463Z,97498.38
2019-05-30T01:01:23.058Z,97496.91
2019-05-30T01:06:27.948Z,97503.02
2019-05-30T01:11:32.590Z,97499.61
2019-05-30T01:16:37.128Z,97507.43
2019-05-30T01:21:41.873Z,97506.94
2019-05-30T01:26:46.614Z,97498.06
2019-05-30T01:31:51.358Z,97495.94
2019-05-30T01:36:55.998Z,97508.94
2019-05-30T01:42:01.741Z,97511.27
2019-05-30T01:47:06.616Z,97511.59
2019-05-30T01:52:11.971Z,97518.02
2019-05-30T01:57:17.638Z,97518.70
2019-05-30T02:02:22.279Z,97516.34
2019-05-30T02:07:27.038Z,97513.98
2019-05-30T02:12:31.765Z,97512.16
2019-05-30T02:17:36.512Z,97513.27
2019-05-30T02:22:41.354Z,97524.31
2019-05-30T02:27:46.099Z,97540.58
2019-05-30T02:32:50.735Z,97538.61
2019-05-30T02:37:55.486Z,97541.41
2019-05-30T02:43:01.269Z,97545.80
2019-05-30T02:48:07.384Z,97539.25
2019-05-30T02:53:13.027Z,97547.95
2019-05-30T02:58:18.144Z,97546.73
2019-05-30T03:03:22.892Z,97547.13
2019-05-30T03:08:27.535Z,97551.43
2019-05-30T03:13:33.299Z,97547.96
2019-05-30T03:18:38.043Z,97549.91
2019-05-30T03:23:42.887Z,97550.51
2019-05-30T03:28:47.757Z,97549.28
2019-05-30T03:33:52.479Z,97553.05
2019-05-30T03:38:58.759Z,97557.23
2019-05-30T03:44:04.055Z,97562.00
2019-05-30T03:49:14.944Z,97568.99
2019-05-30T03:54:19.034Z,97568.88
2019-05-30T03:59:27.059Z,97572.17
2019-05-30T04:04:34.013Z,97572.31
2019-05-30T04:09:38.801Z,97576.07
2019-05-30T04:14:43.641Z,97578.20
2019-05-30T04:19:48.232Z,97586.55
2019-05-30T04:24:52.937Z,97598.37
2019-05-30T04:29:58.032Z,97597.72
2019-05-30T04:35:03.102Z,97605.03
2019-05-30T04:40:11.074Z,97605.27
2019-05-30T04:45:17.942Z,97603.29
2019-05-30T04:50:23.094Z,97614.61
2019-05-30T04:55:27.834Z,97614.94
2019-05-30T05:00:32.580Z,97622.26
2019-05-30T05:05:37.332Z,97621.28
2019-05-30T05:10:42.068Z,97626.19
2019-05-30T05:15:47.124Z,97629.20
2019-05-30T05:20:51.859Z,97636.92
2019-05-30T05:26:01.049Z,97639.80
2019-05-30T05:31:02.784Z,97646.06
2019-05-30T05:36:07.528Z,97653.87
2019-05-30T05:41:12.272Z,97657.46
2019-05-30T05:46:16.917Z,97669.86
2019-05-30T05:51:22.712Z,97674.31
2019-05-30T05:56:27.524Z,97665.00
2019-05-30T06:01:32.167Z,97665.39
2019-05-30T06:06:36.823Z,97674.90
2019-05-30T06:11:41.886Z,97672.38
2019-05-30T06:16:46.600Z,97682.50
2019-05-30T06:21:54.241Z,97686.92
2019-05-30T06:26:57.724Z,97682.57
2019-05-30T06:32:02.678Z,97687.41
2019-05-30T06:37:07.210Z,97693.67
2019-05-30T06:42:12.859Z,97700.12
2019-05-30T06:47:17.937Z,97701.45
2019-05-30T06:52:22.870Z,97703.82
2019-05-30T06:57:27.523Z,97695.75
2019-05-30T07:02:32.600Z,97697.06
2019-05-30T07:07:38.810Z,97681.18
2019-05-30T07:12:43.590Z,97683.50
2019-05-30T07:17:48.257Z,97678.76
2019-05-30T07:22:52.804Z,97682.60
2019-05-30T07:27:57.521Z,97676.70
2019-05-30T07:33:02.371Z,97672.81
2019-05-30T07:38:07.109Z,97664.98
2019-05-30T07:43:11.754Z,97666.31
2019-05-30T07:48:16.287Z,97661.27
2019-05-30T07:53:20.866Z,97649.84
2019-05-30T07:58:25.573Z,97642.05
2019-05-30T08:03:30.482Z,97652.53
2019-05-30T08:08:36.122Z,97641.47
2019-05-30T08:13:40.923Z,97630.95
2019-05-30T08:18:45.780Z,97634.26
2019-05-30T08:23:50.442Z,97636.20
2019-05-30T08:28:55.269Z,97632.27
2019-05-30T08:34:00.014Z,97624.98
2019-05-30T08:39:06.538Z,97634.09
2019-05-30T08:44:11.343Z,97639.84
2019-05-30T08:49:15.988Z,97629.69
2019-05-30T08:54:20.732Z,97636.59
2019-05-30T08:59:25.514Z,97636.17
2019-05-30T09:04:30.224Z,97629.34
2019-05-30T09:09:36.027Z,97623.04
2019-05-30T09:14:41.190Z,97614.94
2019-05-30T09:19:47.557Z,97628.30
2019-05-30T09:24:52.265Z,97615.89
2019-05-30T09:29:56.967Z,97613.95
2019-05-30T09:35:01.657Z,97607.50
2019-05-30T09:40:10.748Z,97603.08
2019-05-30T09:45:15.958Z,97593.83
2019-05-30T09:50:20.713Z,97584.81
2019-05-30T09:55:25.336Z,97593.09
2019-05-30T10:00:31.829Z,97596.52
2019-05-30T10:05:36.571Z,97588.65
2019-05-30T10:10:41.095Z,97590.12
2019-05-30T10:15:46.855Z,97586.86
2019-05-30T10:20:53.579Z,97584.48
2019-05-30T10:25:58.210Z,97571.55
2019-05-30T10:31:02.854Z,97580.73
2019-05-30T10:36:07.394Z,97569.89
2019-05-30T10:41:12.436Z,97569.52
2019-05-30T10:46:17.786Z,97567.52
2019-05-30T10:51:24.029Z,97567.80
2019-05-30T10:56:29.308Z,97561.21
2019-05-30T11:01:34.879Z,97561.52
2019-05-30T11:07:10.547Z,97557.44
2019-05-30T11:12:06.530Z,97557.55
2019-05-30T11:17:13.239Z,97553.66
2019-05-30T11:22:20.538Z,97555.28
2019-05-30T11:27:26.545Z,97552.83
2019-05-30T11:32:31.885Z,97549.97
2019-05-30T11:37:37.623Z,97534.44
2019-05-30T11:42:43.234Z,97531.66
2019-05-30T11:47:49.551Z,97531.39
2019-05-30T11:52:55.792Z,97524.81
2019-05-30T11:58:01.468Z,97528.88
2019-05-30T12:03:06.940Z,97540.16
2019-05-30T12:08:12.178Z,97533.07
2019-05-30T12:13:17.238Z,97540.97
2019-05-30T12:18:22.272Z,97536.97
2019-05-30T12:23:27.466Z,97531.32
2019-05-30T12:28:35.419Z,97525.56
2019-05-30T12:33:40.724Z,97524.03
2019-05-30T12:38:46.241Z,97519.58
2019-05-30T12:43:52.980Z,97521.66
2019-05-30T12:48:59.424Z,97526.81
2019-05-30T12:54:05.227Z,97517.52
2019-05-30T12:59:11.286Z,97517.84
2019-05-30T13:04:16.729Z,97518.50
2019-05-30T13:09:22.127Z,97515.55
2019-05-30T13:14:28.055Z,97520.66
2019-05-30T13:19:33.719Z,97517.09
2019-05-30T13:24:39.077Z,97523.84
2019-05-30T13:29:44.505Z,97528.00
2019-05-30T13:34:50.525Z,97533.81
2019-05-30T13:39:55.573Z,97543.34
2019-05-30T13:45:02.129Z,97557.80
2019-05-30T13:50:13.022Z,97557.36
2019-05-30T13:55:16.402Z,97566.02
2019-05-30T14:00:21.418Z,97571.35
2019-05-30T14:05:26.870Z,97571.19
2019-05-30T14:10:32.682Z,97570.94
2019-05-30T14:15:38.509Z,97574.38
2019-05-30T14:20:44.529Z,97576.81
2019-05-30T14:25:49.836Z,97582.12
2019-05-30T14:30:55.498Z,97570.20
2019-05-30T14:36:04.417Z,97559.54
2019-05-30T14:41:09.553Z,97566.20
2019-05-30T14:46:14.753Z,97564.64
2019-05-30T14:51:19.889Z,97566.67
2019-05-30T14:56:25.672Z,97564.53
2019-05-30T15:01:31.268Z,97577.56
2019-05-30T15:06:37.289Z,97583.88
2019-05-30T15:11:43.022Z,97579.48
2019-05-30T15:16:48.118Z,97583.02
2019-05-30T15:21:53.879Z,97592.16
2019-05-30T15:27:01.010Z,97596.73
2019-05-30T15:32:10.219Z,97601.58
2019-05-30T15:37:16.896Z,97604.23
2019-05-30T15:42:22.395Z,97594.19
2019-05-30T15:47:27.930Z,97593.71
2019-05-30T15:52:33.060Z,97594.13
2019-05-30T15:57:40.177Z,97593.33
2019-05-30T16:02:46.181Z,97604.55
2019-05-30T16:07:51.765Z,97609.88
2019-05-30T16:12:57.799Z,97613.23
2019-05-30T16:18:03.919Z,97615.22
2019-05-30T16:23:09.656Z,97618.34
2019-05-30T16:28:15.762Z,97619.92
2019-05-30T16:33:22.145Z,97621.23
2019-05-30T16:38:28.751Z,97624.95
2019-05-30T16:43:34.617Z,97629.84
2019-05-30T16:48:42.567Z,97629.44
2019-05-30T16:53:49.452Z,97629.64
2019-05-30T16:58:55.182Z,97633.48
2019-05-30T17:04:00.868Z,97636.94
2019-05-30T17:09:07.161Z,97647.63
2019-05-30T17:14:12.231Z,97650.39
2019-05-30T17:19:18.230Z,97652.17
2019-05-30T17:24:25.220Z,97655.95
2019-05-30T17:29:33.197Z,97660.66
2019-05-30T17:34:39.604Z,97660.87
2019-05-30T17:39:46.678Z,97666.78
2019-05-30T17:44:53.591Z,97693.45
2019-05-30T17:49:59.155Z,97691.91
2019-05-30T17:55:06.601Z,97693.45
2019-05-30T18:00:13.329Z,97697.63
2019-05-30T18:05:20.351Z,97714.45
2019-05-30T18:10:26.855Z,97712.58
2019-05-30T18:15:32.518Z,97719.53
2019-05-30T18:20:47.626Z,97734.16
2019-05-30T18:25:44.940Z,97741.35
2019-05-30T18:30:50.337Z,97755.63
2019-05-30T18:35:56.973Z,97766.38
2019-05-30T18:41:11.475Z,97762.95
2019-05-30T18:46:10.016Z,97768.43
2019-05-30T18:51:15.727Z,97780.52
2019-05-30T18:56:21.841Z,97781.00
2019-05-30T19:01:31.485Z,97787.80
2019-05-30T19:06:38.005Z,97787.03
2019-05-30T19:11:45.311Z,97792.86
2019-05-30T19:16:51.022Z,97805.80
2019-05-30T19:21:56.700Z,97812.58
2019-05-30T19:27:02.331Z,97819.30
2019-05-30T19:32:07.270Z,97823.78
2019-05-30T19:37:13.303Z,97835.20
2019-05-30T19:42:20.579Z,97850.67
2019-05-30T19:47:28.539Z,97854.78
2019-05-30T19:52:34.804Z,97847.77
2019-05-30T19:57:40.374Z,97864.92
2019-05-30T20:02:45.649Z,97875.34
2019-05-30T20:07:51.064Z,97871.27
2019-05-30T20:12:56.928Z,97869.72
2019-05-30T20:18:03.080Z,97863.06
2019-05-30T20:23:09.812Z,97863.92
2019-05-30T20:28:15.196Z,97861.77
2019-05-30T20:33:20.770Z,97868.13
2019-05-30T20:38:26.781Z,97866.17
2019-05-30T20:43:34.865Z,97874.50
2019-05-30T20:48:42.772Z,97880.91
2019-05-30T20:53:47.613Z,97876.55
2019-05-30T20:58:55.111Z,97878.45
2019-05-30T21:04:01.393Z,97878.30
2019-05-30T21:09:08.231Z,97878.73
2019-05-30T21:14:15.665Z,97882.65
2019-05-30T21:19:23.701Z,97892.23
2019-05-30T21:24:29.600Z,97893.20
2019-05-30T21:29:36.780Z,97893.44
2019-05-30T21:34:44.435Z,97886.03
2019-05-30T21:39:50.834Z,97891.77
2019-05-30T21:44:56.181Z,97898.29
2019-05-30T21:50:01.404Z,97900.56
2019-05-30T21:55:07.957Z,97906.38
2019-05-30T22:00:14.628Z,97906.50
2019-05-30T22:05:21.369Z,97895.75
2019-05-30T22:10:28.281Z,97898.41
2019-05-30T22:15:33.818Z,97891.75
2019-05-30T22:20:38.555Z,97898.73
2019-05-30T22:25:44.175Z,97896.41
2019-05-30T22:30:50.667Z,97892.66
2019-05-30T22:35:55.442Z,97894.23
2019-05-30T22:41:00.538Z,97895.63
2019-05-30T22:46:05.337Z,97899.33
2019-05-30T22:51:09.983Z,97884.83
2019-05-30T22:56:16.861Z,97885.08
2019-05-30T23:01:21.518Z,97883.34
2019-05-30T23:06:26.916Z,97893.97
2019-05-30T23:11:32.438Z,97893.04
2019-05-30T23:16:37.521Z,97896.14
2019-05-30T23:21:42.333Z,97889.05
2019-05-30T23:26:49.451Z,97892.09
2019-05-30T23:31:54.484Z,97891.53
2019-05-30T23:37:00.921Z,97889.72
2019-05-30T23:42:05.716Z,97887.20
2019-05-30T23:47:10.494Z,97888.32
2019-05-30T23:52:15.301Z,97897.11
2019-05-30T23:57:21.278Z,97904.47
